sensor_id;sensor_type;location;lat;lon;timestamp;pressure;altitude;pressure_sealevel;temperature;humidity
23253;BME280;11795;47.054;15.408;2022-10-19T00:00:00;98120;;;13.5;89.5
23253;BME280;11795;47.054;15.408;2022-10-19T00:02:00;98130;;;13.6;89.1
23253;BME280;11795;47.054;15.408;2022-10-19T00:04:00;98120;;;13.4;90.2
23253;BME280;11795;47.054;15.408;2022-10-19T00:06:09;98120;;;13.6;90.2
23253;BME280;11795;47.054;15.408;2022-10-19T00:08:00;98130;;;13.5;90.5
23253;BME280;11795;47.054;15.408;2022-10-19T00:10:00;98120;;;13.5;90.7
23253;BME280;11795;47.054;15.408;2022-10-19T00:12:00;98130;;;13.6;90.1
23253;BME280;11795;47.054;15.408;2022-10-19T00:14:00;98130;;;13.5;90.7
23253;BME280;11795;47.054;15.408;2022-10-19T00:16:00;98120;;;13.7;90.2
23253;BME280;11795;47.054;15.408;2022-10-19T00:18:00;98120;;;13.6;90.5
23253;BME280;11795;47.054;15.408;2022-10-19T00:20:00;98120;;;13.5;91.1
23253;BME280;11795;47.054;15.408;2022-10-19T00:22:00;98120;;;13.7;90.3
23253;BME280;11795;47.054;15.408;2022-10-19T00:24:00;98120;;;13.6;91.0
23253;BME280;11795;47.054;15.408;2022-10-19T00:26:00;98120;;;13.8;90.6
23253;BME280;11795;47.054;15.408;2022-10-19T00:28:00;98120;;;13.6;90.8
23253;BME280;11795;47.054;15.408;2022-10-19T00:30:00;98120;;;13.6;91.4
23253;BME280;11795;47.054;15.408;2022-10-19T00:32:00;98120;;;13.7;90.7
23253;BME280;11795;47.054;15.408;2022-10-19T00:34:00;98120;;;13.6;91.3
23253;BME280;11795;47.054;15.408;2022-10-19T00:36:00;98120;;;13.8;91.0
23253;BME280;11795;47.054;15.408;2022-10-19T00:38:00;98120;;;13.7;91.2
23253;BME280;11795;47.054;15.408;2022-10-19T00:40:00;98120;;;13.6;91.7
23253;BME280;11795;47.054;15.408;2022-10-19T00:42:00;98120;;;13.8;91.2
23253;BME280;11795;47.054;15.408;2022-10-19T00:44:04;98110;;;13.7;92.0
23253;BME280;11795;47.054;15.408;2022-10-19T00:46:00;98110;;;13.9;91.5
23253;BME280;11795;47.054;15.408;2022-10-19T00:48:00;98100;;;13.8;91.5
23253;BME280;11795;47.054;15.408;2022-10-19T00:50:00;98100;;;13.8;92.2
23253;BME280;11795;47.054;15.408;2022-10-19T00:52:02;98100;;;13.8;91.2
23253;BME280;11795;47.054;15.408;2022-10-19T00:54:02;98110;;;13.7;91.8
23253;BME280;11795;47.054;15.408;2022-10-19T00:56:04;98100;;;13.8;91.8
23253;BME280;11795;47.054;15.408;2022-10-19T00:58:02;98110;;;13.6;92.1
23253;BME280;11795;47.054;15.408;2022-10-19T01:00:03;98100;;;13.6;92.5
23253;BME280;11795;47.054;15.408;2022-10-19T01:02:02;98100;;;13.7;92.3
23253;BME280;11795;47.054;15.408;2022-10-19T01:04:01;98090;;;13.6;92.9
23253;BME280;11795;47.054;15.408;2022-10-19T01:06:00;98090;;;13.8;92.7
23253;BME280;11795;47.054;15.408;2022-10-19T01:08:00;98100;;;13.7;92.8
23253;BME280;11795;47.054;15.408;2022-10-19T01:10:00;98100;;;13.6;93.2
23253;BME280;11795;47.054;15.408;2022-10-19T01:12:05;98090;;;13.8;92.5
23253;BME280;11795;47.054;15.408;2022-10-19T01:14:13;98090;;;13.7;92.8
23253;BME280;11795;47.054;15.408;2022-10-19T01:16:02;98090;;;13.8;92.7
23253;BME280;11795;47.054;15.408;2022-10-19T01:18:05;98090;;;13.7;92.6
23253;BME280;11795;47.054;15.408;2022-10-19T01:22:08;98090;;;13.8;92.4
23253;BME280;11795;47.054;15.408;2022-10-19T01:26:07;98090;;;13.8;92.6
23253;BME280;11795;47.054;15.408;2022-10-19T01:28:08;98090;;;13.7;92.5
23253;BME280;11795;47.054;15.408;2022-10-19T01:30:06;98090;;;13.6;92.9
23253;BME280;11795;47.054;15.408;2022-10-19T01:32:04;98090;;;13.8;92.2
23253;BME280;11795;47.054;15.408;2022-10-19T01:34:04;98090;;;13.6;92.7
23253;BME280;11795;47.054;15.408;2022-10-19T01:36:06;98080;;;13.8;92.5
23253;BME280;11795;47.054;15.408;2022-10-19T01:38:05;98090;;;13.7;92.4
23253;BME280;11795;47.054;15.408;2022-10-19T01:40:04;98080;;;13.6;92.8
23253;BME280;11795;47.054;15.408;2022-10-19T01:42:02;98080;;;13.7;91.9
23253;BME280;11795;47.054;15.408;2022-10-19T01:44:06;98080;;;13.6;92.4
23253;BME280;11795;47.054;15.408;2022-10-19T01:46:05;98080;;;13.7;92.3
23253;BME280;11795;47.054;15.408;2022-10-19T01:48:02;98080;;;13.6;92.1
23253;BME280;11795;47.054;15.408;2022-10-19T01:50:04;98070;;;13.5;92.4
23253;BME280;11795;47.054;15.408;2022-10-19T01:52:03;98070;;;13.6;91.8
23253;BME280;11795;47.054;15.408;2022-10-19T01:54:03;98080;;;13.5;92.5
23253;BME280;11795;47.054;15.408;2022-10-19T01:56:01;98070;;;13.6;92.6
23253;BME280;11795;47.054;15.408;2022-10-19T01:58:03;98070;;;13.5;92.6
23253;BME280;11795;47.054;15.408;2022-10-19T02:00:08;98070;;;13.4;93.0
23253;BME280;11795;47.054;15.408;2022-10-19T02:02:02;98070;;;13.5;92.4
23253;BME280;11795;47.054;15.408;2022-10-19T02:04:01;98070;;;13.4;92.8
23253;BME280;11795;47.054;15.408;2022-10-19T02:06:01;98070;;;13.6;92.6
23253;BME280;11795;47.054;15.408;2022-10-19T02:08:03;98070;;;13.4;92.4
23253;BME280;11795;47.054;15.408;2022-10-19T02:10:00;98070;;;13.3;93.0
23253;BME280;11795;47.054;15.408;2022-10-19T02:12:04;98070;;;13.5;92.3
23253;BME280;11795;47.054;15.408;2022-10-19T02:14:06;98070;;;13.3;92.7
23253;BME280;11795;47.054;15.408;2022-10-19T02:16:03;98070;;;13.5;92.5
23253;BME280;11795;47.054;15.408;2022-10-19T02:18:01;98080;;;13.4;92.2
23253;BME280;11795;47.054;15.408;2022-10-19T02:20:00;98080;;;13.2;92.6
23253;BME280;11795;47.054;15.408;2022-10-19T02:22:00;98070;;;13.4;91.9
23253;BME280;11795;47.054;15.408;2022-10-19T02:24:00;98080;;;13.2;92.0
23253;BME280;11795;47.054;15.408;2022-10-19T02:26:00;98070;;;13.3;92.2
23253;BME280;11795;47.054;15.408;2022-10-19T02:28:02;98070;;;13.1;92.1
23253;BME280;11795;47.054;15.408;2022-10-19T02:30:00;98070;;;13.1;92.7
23253;BME280;11795;47.054;15.408;2022-10-19T02:32:01;98060;;;13.3;92.0
23253;BME280;11795;47.054;15.408;2022-10-19T02:34:00;98070;;;13.1;92.5
23253;BME280;11795;47.054;15.408;2022-10-19T02:36:00;98060;;;13.2;92.6
23253;BME280;11795;47.054;15.408;2022-10-19T02:38:00;98060;;;13.1;92.3
23253;BME280;11795;47.054;15.408;2022-10-19T02:40:01;98060;;;13.0;92.9
23253;BME280;11795;47.054;15.408;2022-10-19T02:42:03;98060;;;13.2;92.3
23253;BME280;11795;47.054;15.408;2022-10-19T02:44:03;98060;;;13.1;92.6
23253;BME280;11795;47.054;15.408;2022-10-19T02:46:06;98060;;;13.1;92.8
23253;BME280;11795;47.054;15.408;2022-10-19T02:48:03;98050;;;13.1;92.3
23253;BME280;11795;47.054;15.408;2022-10-19T02:50:00;98050;;;13.0;92.9
23253;BME280;11795;47.054;15.408;2022-10-19T02:52:03;98050;;;13.0;92.4
23253;BME280;11795;47.054;15.408;2022-10-19T02:54:00;98060;;;12.9;93.0
23253;BME280;11795;47.054;15.408;2022-10-19T02:56:00;98060;;;13.0;93.2
23253;BME280;11795;47.054;15.408;2022-10-19T02:58:00;98070;;;12.9;93.2
23253;BME280;11795;47.054;15.408;2022-10-19T03:00:00;98070;;;12.8;93.7
23253;BME280;11795;47.054;15.408;2022-10-19T03:02:00;98060;;;12.9;93.3
23253;BME280;11795;47.054;15.408;2022-10-19T03:04:00;98070;;;12.8;93.8
23253;BME280;11795;47.054;15.408;2022-10-19T03:06:00;98060;;;12.9;93.6
23253;BME280;11795;47.054;15.408;2022-10-19T03:08:00;98070;;;12.9;93.3
23253;BME280;11795;47.054;15.408;2022-10-19T03:10:00;98060;;;12.8;93.7
23253;BME280;11795;47.054;15.408;2022-10-19T03:12:00;98060;;;12.9;92.5
23253;BME280;11795;47.054;15.408;2022-10-19T03:14:00;98060;;;12.7;93.0
23253;BME280;11795;47.054;15.408;2022-10-19T03:16:05;98060;;;12.8;93.2
23253;BME280;11795;47.054;15.408;2022-10-19T03:18:00;98060;;;12.7;92.8
23253;BME280;11795;47.054;15.408;2022-10-19T03:20:00;98060;;;12.7;93.3
23253;BME280;11795;47.054;15.408;2022-10-19T03:22:00;98060;;;12.8;92.6
23253;BME280;11795;47.054;15.408;2022-10-19T03:24:00;98060;;;12.6;93.1
23253;BME280;11795;47.054;15.408;2022-10-19T03:26:00;98060;;;12.7;93.3
23253;BME280;11795;47.054;15.408;2022-10-19T03:28:00;98060;;;12.6;92.7
23253;BME280;11795;47.054;15.408;2022-10-19T03:30:00;98060;;;12.5;93.1
23253;BME280;11795;47.054;15.408;2022-10-19T03:32:00;98060;;;12.6;92.3
23253;BME280;11795;47.054;15.408;2022-10-19T03:34:01;98060;;;12.5;92.8
23253;BME280;11795;47.054;15.408;2022-10-19T03:36:11;98060;;;12.6;93.1
23253;BME280;11795;47.054;15.408;2022-10-19T03:38:00;98070;;;12.5;92.6
23253;BME280;11795;47.054;15.408;2022-10-19T03:40:00;98070;;;12.4;93.0
23253;BME280;11795;47.054;15.408;2022-10-19T03:42:00;98070;;;12.6;92.4
23253;BME280;11795;47.054;15.408;2022-10-19T03:44:00;98070;;;12.5;92.8
23253;BME280;11795;47.054;15.408;2022-10-19T03:46:00;98070;;;12.5;93.4
23253;BME280;11795;47.054;15.408;2022-10-19T03:48:00;98070;;;12.6;93.0
23253;BME280;11795;47.054;15.408;2022-10-19T03:50:00;98070;;;12.5;93.4
23253;BME280;11795;47.054;15.408;2022-10-19T03:52:00;98070;;;12.6;92.5
23253;BME280;11795;47.054;15.408;2022-10-19T03:54:02;98070;;;12.5;92.9
23253;BME280;11795;47.054;15.408;2022-10-19T03:56:02;98070;;;12.5;92.9
23253;BME280;11795;47.054;15.408;2022-10-19T03:58:00;98070;;;12.5;92.2
23253;BME280;11795;47.054;15.408;2022-10-19T04:00:00;98070;;;12.4;92.7
23253;BME280;11795;47.054;15.408;2022-10-19T04:02:00;98070;;;12.5;92.1
23253;BME280;11795;47.054;15.408;2022-10-19T04:04:02;98070;;;12.3;92.8
23253;BME280;11795;47.054;15.408;2022-10-19T04:06:01;98080;;;12.3;93.6
23253;BME280;11795;47.054;15.408;2022-10-19T04:08:00;98080;;;12.4;93.2
23253;BME280;11795;47.054;15.408;2022-10-19T04:10:00;98090;;;12.3;93.9
23253;BME280;11795;47.054;15.408;2022-10-19T04:12:00;98090;;;12.4;93.7
23253;BME280;11795;47.054;15.408;2022-10-19T04:14:00;98090;;;12.3;94.2
23253;BME280;11795;47.054;15.408;2022-10-19T04:16:00;98100;;;12.4;94.7
23253;BME280;11795;47.054;15.408;2022-10-19T04:18:00;98100;;;12.4;94.4
23253;BME280;11795;47.054;15.408;2022-10-19T04:20:00;98100;;;12.4;94.9
23253;BME280;11795;47.054;15.408;2022-10-19T04:22:00;98110;;;12.6;94.6
23253;BME280;11795;47.054;15.408;2022-10-19T04:24:02;98110;;;12.4;95.1
23253;BME280;11795;47.054;15.408;2022-10-19T04:26:01;98110;;;12.5;95.5
23253;BME280;11795;47.054;15.408;2022-10-19T04:28:00;98110;;;12.5;95.1
23253;BME280;11795;47.054;15.408;2022-10-19T04:30:00;98110;;;12.5;95.6
23253;BME280;11795;47.054;15.408;2022-10-19T04:32:00;98110;;;12.6;95.0
23253;BME280;11795;47.054;15.408;2022-10-19T04:34:00;98110;;;12.5;95.4
23253;BME280;11795;47.054;15.408;2022-10-19T04:36:01;98100;;;12.6;95.7
23253;BME280;11795;47.054;15.408;2022-10-19T04:38:00;98100;;;12.6;95.2
23253;BME280;11795;47.054;15.408;2022-10-19T04:40:00;98100;;;12.6;95.7
23253;BME280;11795;47.054;15.408;2022-10-19T04:42:00;98100;;;12.7;95.0
23253;BME280;11795;47.054;15.408;2022-10-19T04:44:02;98110;;;12.6;95.3
23253;BME280;11795;47.054;15.408;2022-10-19T04:46:02;98110;;;12.5;95.9
23253;BME280;11795;47.054;15.408;2022-10-19T04:48:00;98100;;;12.6;95.3
23253;BME280;11795;47.054;15.408;2022-10-19T04:50:00;98110;;;12.5;96.0
23253;BME280;11795;47.054;15.408;2022-10-19T04:52:00;98100;;;12.7;95.6
23253;BME280;11795;47.054;15.408;2022-10-19T04:54:01;98100;;;12.6;95.9
23253;BME280;11795;47.054;15.408;2022-10-19T04:56:03;98100;;;12.6;96.4
23253;BME280;11795;47.054;15.408;2022-10-19T04:58:00;98100;;;12.7;95.8
23253;BME280;11795;47.054;15.408;2022-10-19T05:00:00;98100;;;12.6;96.1
23253;BME280;11795;47.054;15.408;2022-10-19T05:02:00;98100;;;12.8;95.7
23253;BME280;11795;47.054;15.408;2022-10-19T05:04:01;98110;;;12.7;95.9
23253;BME280;11795;47.054;15.408;2022-10-19T05:06:00;98110;;;12.7;96.4
23253;BME280;11795;47.054;15.408;2022-10-19T05:08:00;98110;;;12.8;96.1
23253;BME280;11795;47.054;15.408;2022-10-19T05:10:00;98110;;;12.7;96.5
23253;BME280;11795;47.054;15.408;2022-10-19T05:12:00;98110;;;12.9;96.1
23253;BME280;11795;47.054;15.408;2022-10-19T05:14:00;98110;;;12.8;96.3
23253;BME280;11795;47.054;15.408;2022-10-19T05:16:01;98110;;;12.8;96.7
23253;BME280;11795;47.054;15.408;2022-10-19T05:18:00;98110;;;12.9;96.0
23253;BME280;11795;47.054;15.408;2022-10-19T05:20:00;98100;;;12.8;96.6
23253;BME280;11795;47.054;15.408;2022-10-19T05:22:00;98100;;;13.0;96.2
23253;BME280;11795;47.054;15.408;2022-10-19T05:24:00;98100;;;12.9;96.4
23253;BME280;11795;47.054;15.408;2022-10-19T05:26:02;98100;;;12.9;96.9
23253;BME280;11795;47.054;15.408;2022-10-19T05:28:00;98100;;;13.1;96.1
23253;BME280;11795;47.054;15.408;2022-10-19T05:30:00;98110;;;13.0;96.5
23253;BME280;11795;47.054;15.408;2022-10-19T05:32:00;98110;;;13.2;96.0
23253;BME280;11795;47.054;15.408;2022-10-19T05:34:00;98110;;;13.1;96.1
23253;BME280;11795;47.054;15.408;2022-10-19T05:36:08;98100;;;13.1;96.4
23253;BME280;11795;47.054;15.408;2022-10-19T05:38:00;98100;;;13.2;95.7
23253;BME280;11795;47.054;15.408;2022-10-19T05:40:00;98100;;;13.1;96.0
23253;BME280;11795;47.054;15.408;2022-10-19T05:42:00;98100;;;13.3;95.3
23253;BME280;11795;47.054;15.408;2022-10-19T05:44:01;98110;;;13.2;95.6
23253;BME280;11795;47.054;15.408;2022-10-19T05:46:02;98120;;;13.2;96.1
23253;BME280;11795;47.054;15.408;2022-10-19T05:48:00;98120;;;13.3;95.3
23253;BME280;11795;47.054;15.408;2022-10-19T05:50:00;98120;;;13.3;95.8
23253;BME280;11795;47.054;15.408;2022-10-19T05:52:00;98120;;;13.5;95.3
23253;BME280;11795;47.054;15.408;2022-10-19T05:54:00;98120;;;13.4;95.5
23253;BME280;11795;47.054;15.408;2022-10-19T05:56:00;98120;;;13.4;95.9
23253;BME280;11795;47.054;15.408;2022-10-19T05:58:00;98120;;;13.6;95.0
23253;BME280;11795;47.054;15.408;2022-10-19T06:00:01;98130;;;13.6;95.4
23253;BME280;11795;47.054;15.408;2022-10-19T06:02:00;98130;;;13.8;94.6
23253;BME280;11795;47.054;15.408;2022-10-19T06:04:01;98140;;;13.7;94.5
23253;BME280;11795;47.054;15.408;2022-10-19T06:06:01;98130;;;13.7;94.7
23253;BME280;11795;47.054;15.408;2022-10-19T06:08:00;98130;;;13.9;93.9
23253;BME280;11795;47.054;15.408;2022-10-19T06:10:00;98130;;;13.9;93.9
23253;BME280;11795;47.054;15.408;2022-10-19T06:12:00;98130;;;14.1;93.4
23253;BME280;11795;47.054;15.408;2022-10-19T06:14:03;98140;;;13.9;93.7
23253;BME280;11795;47.054;15.408;2022-10-19T06:16:00;98140;;;13.9;94.1
23253;BME280;11795;47.054;15.408;2022-10-19T06:18:00;98140;;;14.1;93.2
23253;BME280;11795;47.054;15.408;2022-10-19T06:20:00;98140;;;14.0;93.4
23253;BME280;11795;47.054;15.408;2022-10-19T06:22:00;98150;;;14.2;93.0
23253;BME280;11795;47.054;15.408;2022-10-19T06:24:03;98140;;;14.1;93.1
23253;BME280;11795;47.054;15.408;2022-10-19T06:26:02;98150;;;14.1;93.4
23253;BME280;11795;47.054;15.408;2022-10-19T06:28:00;98140;;;14.2;92.6
23253;BME280;11795;47.054;15.408;2022-10-19T06:30:00;98150;;;14.3;94.4
23253;BME280;11795;47.054;15.408;2022-10-19T06:32:00;98150;;;14.6;91.3
23253;BME280;11795;47.054;15.408;2022-10-19T06:34:01;98160;;;14.6;91.5
23253;BME280;11795;47.054;15.408;2022-10-19T06:36:04;98160;;;14.6;91.6
23253;BME280;11795;47.054;15.408;2022-10-19T06:38:00;98160;;;14.9;91.0
23253;BME280;11795;47.054;15.408;2022-10-19T06:40:00;98160;;;15.1;90.6
23253;BME280;11795;47.054;15.408;2022-10-19T06:42:00;98160;;;15.3;88.4
23253;BME280;11795;47.054;15.408;2022-10-19T06:44:00;98160;;;15.2;87.4
23253;BME280;11795;47.054;15.408;2022-10-19T06:46:03;98170;;;15.2;87.8
23253;BME280;11795;47.054;15.408;2022-10-19T06:48:00;98180;;;15.2;86.9
23253;BME280;11795;47.054;15.408;2022-10-19T06:50:00;98180;;;15.1;87.6
23253;BME280;11795;47.054;15.408;2022-10-19T06:52:00;98180;;;15.4;87.8
23253;BME280;11795;47.054;15.408;2022-10-19T06:54:00;98180;;;15.6;88.7
23253;BME280;11795;47.054;15.408;2022-10-19T06:56:02;98180;;;15.9;87.1
23253;BME280;11795;47.054;15.408;2022-10-19T06:58:01;98180;;;16.2;84.2
23253;BME280;11795;47.054;15.408;2022-10-19T07:00:00;98180;;;16.2;83.7
23253;BME280;11795;47.054;15.408;2022-10-19T07:02:00;98180;;;16.5;83.6
23253;BME280;11795;47.054;15.408;2022-10-19T07:04:00;98180;;;16.8;82.7
23253;BME280;11795;47.054;15.408;2022-10-19T07:06:01;98180;;;17.1;81.8
23253;BME280;11795;47.054;15.408;2022-10-19T07:08:00;98180;;;17.5;79.2
23253;BME280;11795;47.054;15.408;2022-10-19T07:10:00;98190;;;17.8;77.8
23253;BME280;11795;47.054;15.408;2022-10-19T07:12:00;98190;;;18.2;76.4
23253;BME280;11795;47.054;15.408;2022-10-19T07:14:00;98190;;;18.3;74.0
23253;BME280;11795;47.054;15.408;2022-10-19T07:16:03;98190;;;18.5;72.2
23253;BME280;11795;47.054;15.408;2022-10-19T07:18:00;98190;;;18.9;71.1
23253;BME280;11795;47.054;15.408;2022-10-19T07:20:00;98190;;;19.0;70.6
23253;BME280;11795;47.054;15.408;2022-10-19T07:22:00;98200;;;19.4;69.1
23253;BME280;11795;47.054;15.408;2022-10-19T07:24:00;98200;;;18.9;69.5
23253;BME280;11795;47.054;15.408;2022-10-19T07:26:04;98200;;;18.8;69.3
23253;BME280;11795;47.054;15.408;2022-10-19T07:28:00;98200;;;18.8;69.4
23253;BME280;11795;47.054;15.408;2022-10-19T07:30:00;98200;;;18.5;70.5
23253;BME280;11795;47.054;15.408;2022-10-19T07:32:00;98200;;;18.5;71.2
23253;BME280;11795;47.054;15.408;2022-10-19T07:34:02;98200;;;18.4;71.7
23253;BME280;11795;47.054;15.408;2022-10-19T07:36:01;98200;;;18.0;72.8
23253;BME280;11795;47.054;15.408;2022-10-19T07:38:00;98200;;;17.8;73.7
23253;BME280;11795;47.054;15.408;2022-10-19T07:40:00;98200;;;17.8;74.6
23253;BME280;11795;47.054;15.408;2022-10-19T07:42:00;98200;;;18.1;74.0
23253;BME280;11795;47.054;15.408;2022-10-19T07:44:00;98200;;;18.2;73.8
23253;BME280;11795;47.054;15.408;2022-10-19T07:46:03;98200;;;18.5;71.8
23253;BME280;11795;47.054;15.408;2022-10-19T07:48:00;98200;;;18.8;70.7
23253;BME280;11795;47.054;15.408;2022-10-19T07:50:00;98210;;;18.5;71.1
23253;BME280;11795;47.054;15.408;2022-10-19T07:52:00;98210;;;18.1;71.5
23253;BME280;11795;47.054;15.408;2022-10-19T07:54:00;98200;;;17.8;73.0
23253;BME280;11795;47.054;15.408;2022-10-19T07:56:02;98210;;;17.7;74.0
23253;BME280;11795;47.054;15.408;2022-10-19T07:58:01;98200;;;17.8;74.1
23253;BME280;11795;47.054;15.408;2022-10-19T08:00:00;98210;;;17.8;73.7
23253;BME280;11795;47.054;15.408;2022-10-19T08:02:03;98210;;;17.9;73.5
23253;BME280;11795;47.054;15.408;2022-10-19T08:04:00;98210;;;17.9;72.9
23253;BME280;11795;47.054;15.408;2022-10-19T08:06:01;98210;;;18.2;72.7
23253;BME280;11795;47.054;15.408;2022-10-19T08:08:00;98210;;;18.7;71.0
23253;BME280;11795;47.054;15.408;2022-10-19T08:10:00;98220;;;18.8;67.8
23253;BME280;11795;47.054;15.408;2022-10-19T08:12:00;98220;;;18.9;68.1
23253;BME280;11795;47.054;15.408;2022-10-19T08:14:02;98220;;;18.9;68.1
23253;BME280;11795;47.054;15.408;2022-10-19T08:16:00;98220;;;18.9;67.3
23253;BME280;11795;47.054;15.408;2022-10-19T08:18:00;98210;;;19.0;66.1
23253;BME280;11795;47.054;15.408;2022-10-19T08:20:00;98210;;;19.3;66.7
23253;BME280;11795;47.054;15.408;2022-10-19T08:22:00;98210;;;19.7;65.7
23253;BME280;11795;47.054;15.408;2022-10-19T08:24:00;98210;;;19.6;63.9
23253;BME280;11795;47.054;15.408;2022-10-19T08:26:00;98200;;;19.6;64.1
23253;BME280;11795;47.054;15.408;2022-10-19T08:28:00;98200;;;19.6;63.2
23253;BME280;11795;47.054;15.408;2022-10-19T08:30:00;98200;;;19.6;63.1
23253;BME280;11795;47.054;15.408;2022-10-19T08:32:00;98200;;;19.6;63.6
23253;BME280;11795;47.054;15.408;2022-10-19T08:34:00;98200;;;19.3;64.4
23253;BME280;11795;47.054;15.408;2022-10-19T08:36:03;98200;;;19.2;65.2
23253;BME280;11795;47.054;15.408;2022-10-19T08:38:00;98200;;;19.3;63.9
23253;BME280;11795;47.054;15.408;2022-10-19T08:40:00;98200;;;19.3;64.4
23253;BME280;11795;47.054;15.408;2022-10-19T08:42:03;98200;;;19.5;64.0
23253;BME280;11795;47.054;15.408;2022-10-19T08:44:15;98190;;;19.8;63.5
23253;BME280;11795;47.054;15.408;2022-10-19T08:46:09;98190;;;20.0;61.5
23253;BME280;11795;47.054;15.408;2022-10-19T08:48:11;98190;;;20.3;61.9
23253;BME280;11795;47.054;15.408;2022-10-19T08:50:01;98190;;;20.5;61.4
23253;BME280;11795;47.054;15.408;2022-10-19T08:52:03;98190;;;20.3;60.6
23253;BME280;11795;47.054;15.408;2022-10-19T08:54:03;98190;;;20.3;60.1
23253;BME280;11795;47.054;15.408;2022-10-19T08:56:09;98190;;;20.3;60.9
23253;BME280;11795;47.054;15.408;2022-10-19T08:58:09;98180;;;20.6;59.0
23253;BME280;11795;47.054;15.408;2022-10-19T09:00:05;98180;;;20.6;60.1
23253;BME280;11795;47.054;15.408;2022-10-19T09:02:07;98180;;;20.6;59.4
23253;BME280;11795;47.054;15.408;2022-10-19T09:04:03;98180;;;20.3;60.6
23253;BME280;11795;47.054;15.408;2022-10-19T09:06:06;98180;;;20.3;60.5
23253;BME280;11795;47.054;15.408;2022-10-19T09:08:00;98180;;;20.5;60.1
23253;BME280;11795;47.054;15.408;2022-10-19T09:10:04;98180;;;20.3;59.2
23253;BME280;11795;47.054;15.408;2022-10-19T09:12:03;98170;;;20.4;60.6
23253;BME280;11795;47.054;15.408;2022-10-19T09:14:04;98170;;;20.7;59.8
23253;BME280;11795;47.054;15.408;2022-10-19T09:16:02;98180;;;20.8;58.6
23253;BME280;11795;47.054;15.408;2022-10-19T09:18:00;98180;;;21.2;58.8
23253;BME280;11795;47.054;15.408;2022-10-19T09:20:12;98180;;;21.4;56.3
23253;BME280;11795;47.054;15.408;2022-10-19T09:22:03;98180;;;21.1;57.4
23253;BME280;11795;47.054;15.408;2022-10-19T09:24:04;98180;;;21.3;56.8
23253;BME280;11795;47.054;15.408;2022-10-19T09:26:00;98180;;;21.3;57.4
23253;BME280;11795;47.054;15.408;2022-10-19T09:28:09;98180;;;21.3;57.6
23253;BME280;11795;47.054;15.408;2022-10-19T09:30:03;98180;;;21.3;56.7
23253;BME280;11795;47.054;15.408;2022-10-19T09:32:03;98180;;;21.2;56.8
23253;BME280;11795;47.054;15.408;2022-10-19T09:34:04;98190;;;21.2;56.6
23253;BME280;11795;47.054;15.408;2022-10-19T09:36:02;98190;;;21.0;57.1
23253;BME280;11795;47.054;15.408;2022-10-19T09:38:00;98190;;;21.2;57.6
23253;BME280;11795;47.054;15.408;2022-10-19T09:40:00;98190;;;21.4;56.9
23253;BME280;11795;47.054;15.408;2022-10-19T09:42:07;98190;;;21.8;56.2
23253;BME280;11795;47.054;15.408;2022-10-19T09:44:00;98190;;;21.9;55.2
23253;BME280;11795;47.054;15.408;2022-10-19T09:46:04;98190;;;22.0;54.7
23253;BME280;11795;47.054;15.408;2022-10-19T09:48:02;98190;;;22.4;53.8
23253;BME280;11795;47.054;15.408;2022-10-19T09:50:14;98190;;;22.6;53.8
23253;BME280;11795;47.054;15.408;2022-10-19T09:52:00;98190;;;22.9;53.5
23253;BME280;11795;47.054;15.408;2022-10-19T09:54:00;98180;;;23.1;51.9
23253;BME280;11795;47.054;15.408;2022-10-19T09:56:03;98180;;;23.0;51.1
23253;BME280;11795;47.054;15.408;2022-10-19T09:58:03;98190;;;23.0;51.3
23253;BME280;11795;47.054;15.408;2022-10-19T10:00:00;98190;;;22.4;53.0
23253;BME280;11795;47.054;15.408;2022-10-19T10:02:10;98190;;;22.7;53.0
23253;BME280;11795;47.054;15.408;2022-10-19T10:04:05;98180;;;23.1;51.4
23253;BME280;11795;47.054;15.408;2022-10-19T10:06:03;98180;;;23.3;52.2
23253;BME280;11795;47.054;15.408;2022-10-19T10:08:00;98180;;;23.7;50.0
23253;BME280;11795;47.054;15.408;2022-10-19T10:10:00;98170;;;23.6;49.7
23253;BME280;11795;47.054;15.408;2022-10-19T10:12:03;98170;;;23.4;50.6
23253;BME280;11795;47.054;15.408;2022-10-19T10:14:04;98170;;;23.1;50.5
23253;BME280;11795;47.054;15.408;2022-10-19T10:16:02;98160;;;22.8;51.4
23253;BME280;11795;47.054;15.408;2022-10-19T10:18:00;98160;;;22.8;52.2
23253;BME280;11795;47.054;15.408;2022-10-19T10:20:06;98160;;;22.6;52.0
23253;BME280;11795;47.054;15.408;2022-10-19T10:22:02;98150;;;22.5;52.8
23253;BME280;11795;47.054;15.408;2022-10-19T10:24:03;98150;;;22.9;53.2
23253;BME280;11795;47.054;15.408;2022-10-19T10:26:01;98160;;;23.1;53.1
23253;BME280;11795;47.054;15.408;2022-10-19T10:28:03;98160;;;23.7;51.4
23253;BME280;11795;47.054;15.408;2022-10-19T10:30:04;98150;;;23.8;49.7
23253;BME280;11795;47.054;15.408;2022-10-19T10:32:04;98150;;;23.8;49.7
23253;BME280;11795;47.054;15.408;2022-10-19T10:34:01;98150;;;24.0;48.8
23253;BME280;11795;47.054;15.408;2022-10-19T10:36:02;98140;;;23.9;49.4
23253;BME280;11795;47.054;15.408;2022-10-19T10:38:07;98140;;;24.2;48.4
23253;BME280;11795;47.054;15.408;2022-10-19T10:40:01;98130;;;24.1;48.7
23253;BME280;11795;47.054;15.408;2022-10-19T10:42:06;98130;;;24.0;48.3
23253;BME280;11795;47.054;15.408;2022-10-19T10:44:05;98130;;;24.0;48.9
23253;BME280;11795;47.054;15.408;2022-10-19T10:46:03;98120;;;24.1;48.7
23253;BME280;11795;47.054;15.408;2022-10-19T10:48:14;98120;;;24.5;47.4
23253;BME280;11795;47.054;15.408;2022-10-19T10:50:03;98120;;;24.4;47.8
23253;BME280;11795;47.054;15.408;2022-10-19T10:52:05;98120;;;24.0;48.8
23253;BME280;11795;47.054;15.408;2022-10-19T10:54:08;98120;;;23.5;49.6
23253;BME280;11795;47.054;15.408;2022-10-19T10:56:00;98110;;;23.6;49.2
23253;BME280;11795;47.054;15.408;2022-10-19T10:58:10;98100;;;23.7;49.2
23253;BME280;11795;47.054;15.408;2022-10-19T11:00:04;98100;;;23.3;49.2
23253;BME280;11795;47.054;15.408;2022-10-19T11:02:02;98100;;;23.4;49.6
23253;BME280;11795;47.054;15.408;2022-10-19T11:04:05;98100;;;23.3;49.4
23253;BME280;11795;47.054;15.408;2022-10-19T11:06:01;98100;;;23.3;49.9
23253;BME280;11795;47.054;15.408;2022-10-19T11:08:04;98090;;;23.0;49.6
23253;BME280;11795;47.054;15.408;2022-10-19T11:10:04;98090;;;22.8;51.4
23253;BME280;11795;47.054;15.408;2022-10-19T11:12:03;98090;;;23.0;50.8
23253;BME280;11795;47.054;15.408;2022-10-19T11:14:09;98080;;;23.2;50.1